createdAt,value
2022-11-16T00:00:11.392Z,99739.90
2022-11-16T00:03:06.159Z,99744.54
2022-11-16T00:05:38.379Z,99745.11
2022-11-16T00:08:10.445Z,99740.31
2022-11-16T00:10:42.946Z,99735.48
2022-11-16T00:13:15.113Z,99736.71
2022-11-16T00:15:57.215Z,99729.30
2022-11-16T00:18:29.628Z,99727.68
2022-11-16T00:21:04.289Z,99715.90
2022-11-16T00:23:39.383Z,99715.27
2022-11-16T00:26:10.778Z,99716.96
2022-11-16T00:28:43.304Z,99721.44
2022-11-16T00:31:15.728Z,99717.86
2022-11-16T00:33:48.588Z,99720.97
2022-11-16T00:36:21.371Z,99728.39
2022-11-16T00:38:55.406Z,99732.23
2022-11-16T00:41:27.704Z,99738.32
2022-11-16T00:43:59.974Z,99743.45
2022-11-16T00:46:32.448Z,99745.58
2022-11-16T00:49:05.680Z,99750.78
2022-11-16T00:51:39.218Z,99754.23
2022-11-16T00:54:12.158Z,99747.59
2022-11-16T00:56:44.809Z,99753.65
2022-11-16T00:59:17.360Z,99756.73
2022-11-16T01:01:49.755Z,99751.77
2022-11-16T01:04:22.184Z,99745.54
2022-11-16T01:06:54.384Z,99737.91
2022-11-16T01:09:30.154Z,99734.81
2022-11-16T01:12:11.105Z,99730.79
2022-11-16T01:14:45.324Z,99729.81
2022-11-16T01:17:17.565Z,99727.58
2022-11-16T01:19:49.682Z,99725.36
2022-11-16T01:22:21.953Z,99729.27
2022-11-16T01:24:54.121Z,99730.02
2022-11-16T01:27:27.801Z,99734.63
2022-11-16T01:30:00.806Z,99733.99
2022-11-16T01:32:33.236Z,99735.44
2022-11-16T01:35:06.737Z,99726.83
2022-11-16T01:37:40.262Z,99726.58
2022-11-16T01:40:14.635Z,99725.48
2022-11-16T01:42:48.462Z,99725.64
2022-11-16T01:45:23.576Z,99721.00
2022-11-16T01:47:58.212Z,99722.46
2022-11-16T01:50:35.802Z,99725.52
2022-11-16T01:53:10.171Z,99722.06
2022-11-16T01:55:53.445Z,99721.39
2022-11-16T01:58:34.500Z,99717.52
2022-11-16T02:01:22.091Z,99710.58
2022-11-16T02:03:57.089Z,99708.34
2022-11-16T02:06:59.412Z,99708.81
2022-11-16T02:09:58.480Z,99711.04
2022-11-16T02:13:01.011Z,99711.04
2022-11-16T02:15:42.474Z,99708.02
2022-11-16T02:18:30.101Z,99703.69
2022-11-16T02:21:27.717Z,99700.85
2022-11-16T02:24:12.508Z,99701.70
2022-11-16T02:27:23.074Z,99692.23
2022-11-16T02:29:57.267Z,99683.55
2022-11-16T02:32:32.657Z,99682.95
2022-11-16T02:35:11.074Z,99686.66
2022-11-16T02:37:49.847Z,99687.52
2022-11-16T02:40:25.162Z,99688.15
2022-11-16T02:43:06.445Z,99694.48
2022-11-16T02:45:42.993Z,99690.27
2022-11-16T02:48:22.253Z,99686.16
2022-11-16T02:50:55.010Z,99682.42
2022-11-16T02:53:28.302Z,99684.52
2022-11-16T02:56:01.215Z,99685.48
2022-11-16T02:58:34.053Z,99693.88
2022-11-16T03:01:10.055Z,99687.77
2022-11-16T03:03:46.601Z,99686.84
2022-11-16T03:06:24.377Z,99685.15
2022-11-16T03:09:05.580Z,99687.27
2022-11-16T03:12:00.637Z,99689.36
2022-11-16T03:14:41.740Z,99683.84
2022-11-16T03:17:20.719Z,99679.80
2022-11-16T03:20:00.341Z,99670.98
2022-11-16T03:22:40.285Z,99669.46
2022-11-16T03:25:17.494Z,99672.02
2022-11-16T03:27:55.629Z,99673.84
2022-11-16T03:30:33.149Z,99677.52
2022-11-16T03:33:15.863Z,99673.65
2022-11-16T03:35:55.227Z,99662.61
2022-11-16T03:38:29.912Z,99655.61
2022-11-16T03:41:07.062Z,99651.17
2022-11-16T03:43:40.538Z,99653.55
2022-11-16T03:46:13.472Z,99655.02
2022-11-16T03:48:45.845Z,99658.34
2022-11-16T03:51:28.511Z,99658.48
2022-11-16T03:54:00.729Z,99658.29
2022-11-16T03:56:33.587Z,99653.02
2022-11-16T03:59:05.759Z,99649.19
2022-11-16T04:01:43.292Z,99645.80
2022-11-16T04:04:31.087Z,99648.41
2022-11-16T04:07:21.623Z,99648.00
2022-11-16T04:10:11.264Z,99648.79
2022-11-16T04:13:04.626Z,99648.02
2022-11-16T04:15:54.486Z,99646.70
2022-11-16T04:18:44.754Z,99635.34
2022-11-16T04:21:42.393Z,99629.63
2022-11-16T04:24:18.352Z,99627.12
2022-11-16T04:27:12.204Z,99625.65
2022-11-16T04:29:45.240Z,99626.25
2022-11-16T04:32:35.309Z,99629.23
2022-11-16T04:35:25.905Z,99630.91
2022-11-16T04:38:00.056Z,99632.47
2022-11-16T04:40:38.312Z,99628.20
2022-11-16T04:43:10.730Z,99628.16
2022-11-16T04:46:02.302Z,99631.59
2022-11-16T04:48:39.257Z,99630.17
2022-11-16T04:51:11.911Z,99634.98
2022-11-16T04:53:44.329Z,99635.99
2022-11-16T04:56:22.190Z,99637.95
2022-11-16T04:58:54.562Z,99635.61
2022-11-16T05:01:40.797Z,99631.92
2022-11-16T05:04:13.584Z,99630.86
2022-11-16T05:06:45.890Z,99629.50
2022-11-16T05:09:18.339Z,99628.74
2022-11-16T05:11:51.174Z,99630.22
2022-11-16T05:14:23.418Z,99627.00
2022-11-16T05:16:56.253Z,99627.00
2022-11-16T05:19:46.776Z,99625.71
2022-11-16T05:22:19.352Z,99626.09
2022-11-16T05:24:51.650Z,99621.73
2022-11-16T05:27:25.690Z,99620.05
2022-11-16T05:29:58.576Z,99621.69
2022-11-16T05:32:31.385Z,99624.14
2022-11-16T05:35:04.879Z,99625.92
2022-11-16T05:37:38.429Z,99624.14
2022-11-16T05:40:13.788Z,99626.19
2022-11-16T05:42:50.859Z,99620.92
2022-11-16T05:45:23.408Z,99629.45
2022-11-16T05:47:56.345Z,99638.00
2022-11-16T05:50:28.580Z,99639.68
2022-11-16T05:53:23.491Z,99639.81
2022-11-16T05:55:56.187Z,99644.39
2022-11-16T05:58:28.855Z,99640.77
2022-11-16T06:01:02.351Z,99639.09
2022-11-16T06:03:35.796Z,99641.00
2022-11-16T06:08:59.164Z,99651.23
2022-11-16T06:11:35.757Z,99649.29
2022-11-16T06:14:09.255Z,99654.93
2022-11-16T06:16:41.730Z,99654.56
2022-11-16T06:19:14.485Z,99651.23
2022-11-16T06:21:46.685Z,99646.66
2022-11-16T06:24:22.355Z,99650.98
2022-11-16T06:26:54.650Z,99646.56
2022-11-16T06:29:27.177Z,99649.23
2022-11-16T06:31:59.652Z,99643.88
2022-11-16T06:34:31.974Z,99641.48
2022-11-16T06:37:05.678Z,99641.85
2022-11-16T06:39:38.180Z,99640.30
2022-11-16T06:42:10.757Z,99639.80
2022-11-16T06:44:43.823Z,99640.80
2022-11-16T06:47:16.681Z,99642.02
2022-11-16T06:49:48.926Z,99638.54
2022-11-16T06:52:25.014Z,99642.06
2022-11-16T06:54:57.230Z,99643.44
2022-11-16T06:57:29.885Z,99645.78
2022-11-16T07:00:02.438Z,99640.46
2022-11-16T07:02:37.218Z,99642.16
2022-11-16T07:05:10.854Z,99644.83
2022-11-16T07:07:44.297Z,99643.45
2022-11-16T07:10:16.743Z,99642.42
2022-11-16T07:12:49.396Z,99645.11
2022-11-16T07:15:22.412Z,99638.06
2022-11-16T07:17:54.604Z,99640.67
2022-11-16T07:20:27.215Z,99645.30
2022-11-16T07:23:02.627Z,99645.92
2022-11-16T07:25:35.692Z,99640.37
2022-11-16T07:28:08.577Z,99645.00
2022-11-16T07:30:41.492Z,99650.64
2022-11-16T07:33:19.415Z,99652.30
2022-11-16T07:36:18.031Z,99653.93
2022-11-16T07:38:50.233Z,99651.05
2022-11-16T07:41:23.337Z,99647.89
2022-11-16T07:44:05.613Z,99648.69
2022-11-16T07:46:48.165Z,99647.81
2022-11-16T07:49:22.010Z,99648.98
2022-11-16T07:51:58.609Z,99649.16
2022-11-16T07:54:40.121Z,99643.78
2022-11-16T07:57:12.752Z,99644.69
2022-11-16T07:59:46.047Z,99644.11
2022-11-16T08:02:18.216Z,99638.08
2022-11-16T08:04:51.179Z,99635.95
2022-11-16T08:07:24.015Z,99640.30
2022-11-16T08:10:00.271Z,99641.41
2022-11-16T08:12:32.825Z,99642.45
2022-11-16T08:15:05.536Z,99638.48
2022-11-16T08:17:37.972Z,99640.21
2022-11-16T08:20:12.751Z,99640.05
2022-11-16T08:22:45.902Z,99637.64
2022-11-16T08:25:18.505Z,99643.70
2022-11-16T08:27:50.647Z,99644.73
2022-11-16T08:30:24.020Z,99638.95
2022-11-16T08:32:56.520Z,99637.86
2022-11-16T08:35:28.739Z,99640.06
2022-11-16T08:38:07.693Z,99638.92
2022-11-16T08:40:58.215Z,99643.77
2022-11-16T08:43:31.253Z,99648.89
2022-11-16T08:46:04.424Z,99648.30
2022-11-16T08:48:37.270Z,99643.98
2022-11-16T08:51:19.669Z,99644.41
2022-11-16T08:54:00.150Z,99643.20
2022-11-16T08:56:32.934Z,99644.34
2022-11-16T08:59:05.046Z,99638.18
2022-11-16T09:01:37.591Z,99640.37
2022-11-16T09:04:10.104Z,99644.16
2022-11-16T09:06:42.326Z,99645.73
2022-11-16T09:09:14.490Z,99650.20
2022-11-16T09:11:46.586Z,99653.16
2022-11-16T09:14:18.754Z,99652.83
2022-11-16T09:16:50.946Z,99659.21
2022-11-16T09:19:23.769Z,99652.67
2022-11-16T09:21:55.848Z,99659.64
2022-11-16T09:24:28.269Z,99659.98
2022-11-16T09:27:02.026Z,99663.58
2022-11-16T09:29:34.114Z,99664.04
2022-11-16T09:32:06.904Z,99654.63
2022-11-16T09:34:39.336Z,99653.08
2022-11-16T09:37:11.518Z,99649.02
2022-11-16T09:39:43.549Z,99651.44
2022-11-16T09:42:29.854Z,99647.98
2022-11-16T09:45:06.496Z,99651.27
2022-11-16T09:47:49.242Z,99645.95
2022-11-16T09:50:40.083Z,99639.40
2022-11-16T09:53:27.733Z,99638.92
2022-11-16T09:56:05.670Z,99640.96
2022-11-16T09:58:45.206Z,99638.84
2022-11-16T10:01:28.328Z,99640.98
2022-11-16T10:04:06.691Z,99634.98
2022-11-16T10:06:48.451Z,99636.14
2022-11-16T10:09:21.118Z,99638.48
2022-11-16T10:12:08.082Z,99640.19
2022-11-16T10:15:37.546Z,99631.61
2022-11-16T10:18:19.132Z,99628.60
2022-11-16T10:21:08.835Z,99620.03
2022-11-16T10:23:57.666Z,99624.32
2022-11-16T10:26:38.679Z,99618.27
2022-11-16T10:29:23.911Z,99617.13
2022-11-16T10:32:11.626Z,99612.67
2022-11-16T10:34:51.140Z,99610.48
2022-11-16T10:37:25.664Z,99609.40
2022-11-16T10:39:57.832Z,99607.34
2022-11-16T10:42:36.146Z,99610.13
2022-11-16T10:45:20.734Z,99610.63
2022-11-16T10:47:58.326Z,99611.55
2022-11-16T10:50:36.180Z,99611.25
2022-11-16T10:53:13.132Z,99608.02
2022-11-16T10:55:45.658Z,99603.83
2022-11-16T10:58:17.816Z,99605.91
2022-11-16T11:00:52.088Z,99612.14
2022-11-16T11:03:34.016Z,99612.38
2022-11-16T11:06:13.942Z,99609.23
2022-11-16T11:08:46.083Z,99610.52
2022-11-16T11:11:42.212Z,99609.13
2022-11-16T11:14:16.633Z,99607.75
2022-11-16T11:16:53.442Z,99611.14
2022-11-16T11:19:29.959Z,99607.38
2022-11-16T11:22:03.019Z,99612.53
2022-11-16T11:24:44.301Z,99610.99
2022-11-16T11:27:24.599Z,99606.52
2022-11-16T11:29:59.775Z,99608.66
2022-11-16T11:32:32.891Z,99610.75
2022-11-16T11:35:06.784Z,99606.02
2022-11-16T11:37:40.657Z,99607.45
2022-11-16T11:40:26.205Z,99611.18
2022-11-16T11:42:59.082Z,99606.46
2022-11-16T11:45:48.010Z,99607.00
2022-11-16T11:48:35.743Z,99605.90
2022-11-16T11:51:18.048Z,99601.73
2022-11-16T11:53:55.686Z,99605.66
2022-11-16T11:56:30.423Z,99603.00
2022-11-16T11:59:04.488Z,99599.31
2022-11-16T12:01:51.352Z,99602.05
2022-11-16T12:05:11.495Z,99600.33
2022-11-16T12:07:57.640Z,99602.33
2022-11-16T12:10:39.666Z,99602.89
2022-11-16T12:13:34.597Z,99603.00
2022-11-16T12:16:19.913Z,99606.84
2022-11-16T12:19:04.986Z,99604.80
2022-11-16T12:21:50.466Z,99609.74
2022-11-16T12:24:42.628Z,99620.10
2022-11-16T12:27:29.069Z,99617.33
2022-11-16T12:30:09.472Z,99625.90
2022-11-16T12:33:00.809Z,99627.94
2022-11-16T12:35:44.704Z,99630.08
2022-11-16T12:38:30.439Z,99630.48
2022-11-16T12:41:21.577Z,99626.95
2022-11-16T12:44:00.632Z,99631.60
2022-11-16T12:46:46.649Z,99630.69
2022-11-16T12:49:39.432Z,99637.58
2022-11-16T12:52:26.366Z,99636.42
2022-11-16T12:55:28.889Z,99631.10
2022-11-16T12:58:19.726Z,99633.55
2022-11-16T13:01:04.929Z,99631.48
2022-11-16T13:03:43.060Z,99632.11
2022-11-16T13:06:20.015Z,99634.66
2022-11-16T13:09:02.883Z,99642.77
2022-11-16T13:11:39.379Z,99644.19
2022-11-16T13:14:18.356Z,99645.86
2022-11-16T13:16:52.267Z,99646.36
2022-11-16T13:19:25.258Z,99650.57
2022-11-16T13:22:03.749Z,99651.80
2022-11-16T13:24:53.833Z,99654.70
2022-11-16T13:27:33.568Z,99649.53
2022-11-16T13:30:16.037Z,99653.71
2022-11-16T13:33:12.091Z,99656.75
2022-11-16T13:35:44.676Z,99654.17
2022-11-16T13:38:36.783Z,99654.67
2022-11-16T13:41:29.530Z,99653.06
2022-11-16T13:44:02.062Z,99653.28
2022-11-16T13:46:55.662Z,99656.21
2022-11-16T13:49:36.580Z,99650.41
2022-11-16T13:52:23.146Z,99654.44
2022-11-16T13:54:59.270Z,99654.48
2022-11-16T13:57:32.517Z,99653.84
2022-11-16T14:00:25.169Z,99648.73
2022-11-16T14:05:56.941Z,99640.81
2022-11-16T14:08:52.586Z,99645.27
2022-11-16T14:11:38.848Z,99647.13
2022-11-16T14:14:13.921Z,99645.35
2022-11-16T14:16:51.267Z,99647.30
2022-11-16T14:19:55.210Z,99646.48
2022-11-16T14:22:54.880Z,99645.97
2022-11-16T14:25:34.862Z,99643.50
2022-11-16T14:28:19.471Z,99647.02
2022-11-16T14:31:01.856Z,99641.48
2022-11-16T14:33:37.384Z,99643.42
2022-11-16T14:36:11.541Z,99644.36
2022-11-16T14:38:44.810Z,99642.58
2022-11-16T14:41:24.200Z,99643.36
2022-11-16T14:43:58.617Z,99642.77
2022-11-16T14:46:34.422Z,99648.21
2022-11-16T14:49:13.527Z,99642.43
2022-11-16T14:51:49.789Z,99642.54
2022-11-16T14:54:38.576Z,99645.05
2022-11-16T14:57:19.780Z,99635.90
2022-11-16T15:00:08.634Z,99637.00
2022-11-16T15:02:42.076Z,99638.34
2022-11-16T15:05:18.864Z,99631.17
2022-11-16T15:07:54.082Z,99631.14
2022-11-16T15:10:28.346Z,99633.30
2022-11-16T15:13:00.615Z,99632.38
2022-11-16T15:15:34.111Z,99629.77
2022-11-16T15:18:14.963Z,99625.34
2022-11-16T15:20:53.026Z,99624.41
2022-11-16T15:23:30.317Z,99625.11
2022-11-16T15:26:03.703Z,99624.64
2022-11-16T15:28:35.886Z,99629.11
2022-11-16T15:31:09.628Z,99627.60
2022-11-16T15:33:45.252Z,99625.77
2022-11-16T15:36:38.925Z,99625.02
2022-11-16T15:39:17.749Z,99627.03
2022-11-16T15:41:50.345Z,99628.05
2022-11-16T15:44:24.542Z,99628.17
2022-11-16T15:46:58.096Z,99631.34
2022-11-16T15:49:33.588Z,99631.00
2022-11-16T15:52:06.166Z,99626.23
2022-11-16T15:54:52.096Z,99628.81
2022-11-16T15:57:25.225Z,99628.84
2022-11-16T15:59:58.853Z,99624.84
2022-11-16T16:02:32.864Z,99624.70
2022-11-16T16:05:05.107Z,99625.48
2022-11-16T16:07:41.835Z,99623.27
2022-11-16T16:10:25.782Z,99617.66
2022-11-16T16:12:59.434Z,99615.17
2022-11-16T16:15:36.268Z,99617.21
2022-11-16T16:18:40.507Z,99613.37
2022-11-16T16:21:14.002Z,99615.62
2022-11-16T16:23:50.072Z,99614.14
2022-11-16T16:26:23.102Z,99609.13
2022-11-16T16:28:55.064Z,99611.34
2022-11-16T16:31:26.959Z,99614.06
2022-11-16T16:33:59.657Z,99613.30
2022-11-16T16:36:31.978Z,99615.39
2022-11-16T16:39:04.098Z,99615.15
2022-11-16T16:41:36.290Z,99613.51
2022-11-16T16:44:15.116Z,99614.52
2022-11-16T16:46:47.080Z,99617.92
2022-11-16T16:49:19.066Z,99617.86
2022-11-16T16:51:50.999Z,99622.83
2022-11-16T16:54:22.915Z,99621.59
2022-11-16T16:56:54.829Z,99620.88
2022-11-16T16:59:27.330Z,99624.27
2022-11-16T17:02:00.476Z,99625.52
2022-11-16T17:04:33.382Z,99622.07
2022-11-16T17:07:05.430Z,99627.77
2022-11-16T17:09:37.743Z,99626.42
2022-11-16T17:12:11.498Z,99623.36
2022-11-16T17:14:44.038Z,99622.05
2022-11-16T17:17:15.963Z,99625.46
2022-11-16T17:19:48.364Z,99623.92
2022-11-16T17:22:20.992Z,99625.77
2022-11-16T17:24:52.954Z,99627.75
2022-11-16T17:27:24.951Z,99630.87
2022-11-16T17:29:58.177Z,99632.44
2022-11-16T17:32:30.818Z,99632.58
2022-11-16T17:35:02.809Z,99634.25
2022-11-16T17:37:34.699Z,99631.05
2022-11-16T17:40:08.031Z,99633.20
2022-11-16T17:42:39.928Z,99634.06
2022-11-16T17:45:13.142Z,99628.70
2022-11-16T17:47:45.234Z,99628.55
2022-11-16T17:50:17.758Z,99630.56
2022-11-16T17:52:49.723Z,99632.45
2022-11-16T17:55:21.815Z,99631.84
2022-11-16T17:57:53.700Z,99638.58
2022-11-16T18:00:25.950Z,99638.98
2022-11-16T18:02:57.806Z,99639.90
2022-11-16T18:05:30.948Z,99647.09
2022-11-16T18:08:02.912Z,99648.36
2022-11-16T18:10:36.598Z,99644.02
2022-11-16T18:13:08.861Z,99650.34
2022-11-16T18:15:42.562Z,99648.48
2022-11-16T18:18:14.735Z,99651.04
2022-11-16T18:20:50.883Z,99652.18
2022-11-16T18:23:23.063Z,99655.81
2022-11-16T18:25:55.129Z,99659.81
2022-11-16T18:28:27.100Z,99659.55
2022-11-16T18:31:06.971Z,99666.32
2022-11-16T18:33:40.073Z,99669.79
2022-11-16T18:36:13.233Z,99672.54
2022-11-16T18:38:45.236Z,99674.34
2022-11-16T18:41:20.379Z,99676.08
2022-11-16T18:43:53.900Z,99670.52
2022-11-16T18:46:27.529Z,99673.65
2022-11-16T18:49:00.129Z,99672.55
2022-11-16T18:51:32.198Z,99674.16
2022-11-16T18:54:04.289Z,99671.73
2022-11-16T18:56:36.406Z,99667.40
2022-11-16T18:59:08.317Z,99666.32
2022-11-16T19:01:40.716Z,99656.88
2022-11-16T19:04:13.294Z,99658.46
2022-11-16T19:06:45.283Z,99654.09
2022-11-16T19:09:17.357Z,99659.41
2022-11-16T19:11:50.873Z,99651.00
2022-11-16T19:14:22.736Z,99647.73
2022-11-16T19:16:57.245Z,99646.98
2022-11-16T19:19:29.963Z,99644.90
2022-11-16T19:22:02.032Z,99649.67
2022-11-16T19:24:33.994Z,99649.18
2022-11-16T19:27:06.122Z,99647.98
2022-11-16T19:29:38.073Z,99651.47
2022-11-16T19:32:10.087Z,99647.16
2022-11-16T19:34:41.999Z,99647.25
2022-11-16T19:37:14.144Z,99645.94
2022-11-16T19:39:46.440Z,99645.91
2022-11-16T19:42:18.391Z,99647.09
2022-11-16T19:44:50.340Z,99650.60
2022-11-16T19:47:24.294Z,99648.42
2022-11-16T19:49:56.313Z,99652.52
2022-11-16T19:52:28.328Z,99654.35
2022-11-16T19:55:00.497Z,99653.23
2022-11-16T19:57:32.845Z,99651.37
2022-11-16T20:00:05.069Z,99653.52
2022-11-16T20:02:38.820Z,99657.14
2022-11-16T20:05:11.695Z,99659.08
2022-11-16T20:07:44.780Z,99663.19
2022-11-16T20:10:17.543Z,99657.17
2022-11-16T20:12:50.145Z,99660.75
2022-11-16T20:15:24.010Z,99659.73
2022-11-16T20:17:56.053Z,99662.43
2022-11-16T20:20:27.941Z,99668.71
2022-11-16T20:22:59.916Z,99673.13
2022-11-16T20:25:31.840Z,99672.23
2022-11-16T20:28:04.695Z,99670.23
2022-11-16T20:30:36.918Z,99667.91
2022-11-16T20:33:08.893Z,99665.00
2022-11-16T20:35:40.792Z,99668.02
2022-11-16T20:38:12.782Z,99668.20
2022-11-16T20:40:44.748Z,99666.64
2022-11-16T20:43:17.093Z,99665.56
2022-11-16T20:45:54.908Z,99667.20
2022-11-16T20:48:26.834Z,99669.13
2022-11-16T20:50:58.770Z,99668.09
2022-11-16T20:53:30.759Z,99667.97
2022-11-16T20:56:03.519Z,99663.73
2022-11-16T20:58:36.298Z,99663.69
2022-11-16T21:01:09.990Z,99663.23
2022-11-16T21:03:44.648Z,99664.55
2022-11-16T21:06:17.155Z,99662.92
2022-11-16T21:08:49.478Z,99669.15
2022-11-16T21:11:25.023Z,99666.88
2022-11-16T21:14:15.115Z,99666.80
2022-11-16T21:16:47.526Z,99665.48
2022-11-16T21:19:19.540Z,99666.48
2022-11-16T21:21:51.438Z,99667.17
2022-11-16T21:24:24.926Z,99662.92
2022-11-16T21:26:56.849Z,99662.98
2022-11-16T21:29:29.120Z,99663.13
2022-11-16T21:32:01.059Z,99660.08
2022-11-16T21:34:38.780Z,99663.86
2022-11-16T21:37:12.300Z,99663.27
2022-11-16T21:39:44.552Z,99667.48
2022-11-16T21:42:16.439Z,99666.65
2022-11-16T21:44:48.318Z,99667.30
2022-11-16T21:47:21.153Z,99667.30
2022-11-16T21:50:24.842Z,99666.84
2022-11-16T21:52:45.514Z,99664.31
2022-11-16T21:55:17.554Z,99666.40
2022-11-16T21:57:50.026Z,99669.55
2022-11-16T22:00:23.170Z,99669.69
2022-11-16T22:02:55.288Z,99670.93
2022-11-16T22:05:45.171Z,99674.96
2022-11-16T22:08:17.574Z,99675.64
2022-11-16T22:10:53.384Z,99678.50
2022-11-16T22:13:25.341Z,99679.21
2022-11-16T22:15:57.385Z,99683.55
2022-11-16T22:18:29.733Z,99681.29
2022-11-16T22:21:02.178Z,99687.70
2022-11-16T22:23:35.200Z,99683.32
2022-11-16T22:26:10.284Z,99682.59
2022-11-16T22:28:42.579Z,99681.78
2022-11-16T22:31:16.002Z,99685.26
2022-11-16T22:33:52.447Z,99685.74
2022-11-16T22:36:24.361Z,99681.73
2022-11-16T22:38:57.252Z,99683.05
2022-11-16T22:41:29.228Z,99682.61
2022-11-16T22:44:01.192Z,99675.58
2022-11-16T22:46:33.155Z,99676.15
2022-11-16T22:49:05.121Z,99675.09
2022-11-16T22:51:37.210Z,99672.33
2022-11-16T22:54:12.555Z,99676.92
2022-11-16T22:56:45.209Z,99673.20
2022-11-16T22:59:17.225Z,99675.98
2022-11-16T23:01:49.390Z,99679.83
2022-11-16T23:04:21.277Z,99682.33
2022-11-16T23:06:56.766Z,99680.88
2022-11-16T23:09:28.901Z,99674.27
2022-11-16T23:12:18.441Z,99674.46
2022-11-16T23:15:08.503Z,99673.20
2022-11-16T23:17:40.623Z,99673.80
2022-11-16T23:20:31.989Z,99669.59
2022-11-16T23:23:21.518Z,99669.67
2022-11-16T23:26:13.962Z,99677.58
2022-11-16T23:28:46.025Z,99677.09
2022-11-16T23:31:18.168Z,99674.61
2022-11-16T23:33:50.240Z,99678.58
2022-11-16T23:36:22.303Z,99677.66
2022-11-16T23:38:54.411Z,99671.95
2022-11-16T23:41:45.177Z,99669.95
2022-11-16T23:44:17.373Z,99672.01
2022-11-16T23:46:52.912Z,99673.17
2022-11-16T23:49:25.164Z,99664.77
2022-11-16T23:51:57.563Z,99662.92
2022-11-16T23:54:29.648Z,99660.52
2022-11-16T23:57:01.745Z,99650.06
2022-11-16T23:59:33.704Z,99640.54
